createdAt,value
2022-08-17T00:00:43.901Z,86.33
2022-08-17T00:03:28.336Z,86.40
2022-08-17T00:06:04.453Z,86.66
2022-08-17T00:08:47.081Z,83.00
2022-08-17T00:11:34.972Z,84.67
2022-08-17T00:14:19.017Z,84.28
2022-08-17T00:16:56.513Z,84.50
2022-08-17T00:19:27.489Z,81.42
2022-08-17T00:22:34.181Z,84.53
2022-08-17T00:24:52.047Z,86.24
2022-08-17T00:27:20.699Z,86.74
2022-08-17T00:29:48.938Z,86.68
2022-08-17T00:33:11.854Z,83.45
2022-08-17T00:35:10.647Z,82.37
2022-08-17T00:37:38.510Z,84.37
2022-08-17T00:40:11.817Z,82.09
2022-08-17T00:42:40.916Z,82.45
2022-08-17T00:45:14.824Z,85.94
2022-08-17T00:47:44.359Z,87.99
2022-08-17T00:50:19.695Z,85.88
2022-08-17T00:52:57.347Z,87.26
2022-08-17T00:55:27.326Z,88.17
2022-08-17T00:58:01.607Z,88.70
2022-08-17T01:00:42.270Z,87.45
2022-08-17T01:03:31.348Z,85.99
2022-08-17T01:06:04.603Z,86.28
2022-08-17T01:08:37.074Z,85.86
2022-08-17T01:11:07.291Z,83.99
2022-08-17T01:13:43.216Z,83.18
2022-08-17T01:16:31.765Z,86.45
2022-08-17T01:19:06.955Z,86.62
2022-08-17T01:21:50.781Z,87.90
2022-08-17T01:24:18.923Z,88.18
2022-08-17T01:26:48.375Z,86.92
2022-08-17T01:29:17.063Z,89.21
2022-08-17T01:31:53.063Z,90.61
2022-08-17T01:34:21.785Z,91.28
2022-08-17T01:36:51.015Z,89.29
2022-08-17T01:40:05.422Z,90.28
2022-08-17T01:42:46.760Z,89.77
2022-08-17T01:45:30.605Z,90.87
2022-08-17T01:48:00.370Z,92.16
2022-08-17T01:50:35.044Z,91.80
2022-08-17T01:53:19.025Z,91.86
2022-08-17T01:56:15.470Z,90.23
2022-08-17T01:58:44.365Z,88.47
2022-08-17T02:01:14.895Z,89.48
2022-08-17T02:03:59.512Z,91.13
2022-08-17T02:06:52.485Z,93.12
2022-08-17T02:09:29.628Z,93.75
2022-08-17T02:12:37.624Z,93.28
2022-08-17T02:14:51.633Z,91.48
2022-08-17T02:17:20.236Z,92.97
2022-08-17T02:19:47.935Z,93.72
2022-08-17T02:22:18.401Z,93.96
2022-08-17T02:24:58.671Z,93.87
2022-08-17T02:27:30.042Z,94.80
2022-08-17T02:29:57.916Z,95.73
2022-08-17T02:32:28.684Z,95.72
2022-08-17T02:35:01.735Z,91.00
2022-08-17T02:37:31.156Z,89.35
2022-08-17T02:40:00.667Z,89.73
2022-08-17T02:42:39.044Z,90.99
2022-08-17T02:45:26.873Z,89.25
2022-08-17T02:47:55.489Z,88.80
2022-08-17T02:50:26.538Z,91.78
2022-08-17T02:52:55.950Z,91.28
2022-08-17T02:55:40.335Z,88.57
2022-08-17T02:58:11.088Z,89.22
2022-08-17T03:00:48.015Z,91.22
2022-08-17T03:03:21.080Z,91.25
2022-08-17T03:05:51.539Z,90.30
2022-08-17T03:08:23.506Z,89.73
2022-08-17T03:10:52.185Z,89.69
2022-08-17T03:13:20.940Z,91.65
2022-08-17T03:15:50.801Z,92.41
2022-08-17T03:18:24.663Z,94.42
2022-08-17T03:20:59.045Z,94.49
2022-08-17T03:23:29.501Z,95.47
2022-08-17T03:25:59.434Z,96.10
2022-08-17T03:28:28.475Z,96.05
2022-08-17T03:30:57.090Z,95.56
2022-08-17T03:33:25.136Z,96.89
2022-08-17T03:35:53.804Z,96.65
2022-08-17T03:38:22.148Z,96.65
2022-08-17T03:40:57.713Z,97.12
2022-08-17T03:43:34.668Z,96.27
2022-08-17T03:46:27.299Z,96.93
2022-08-17T03:49:15.799Z,96.78
2022-08-17T03:52:02.957Z,97.30
2022-08-17T03:54:49.281Z,98.04
2022-08-17T03:57:19.345Z,98.20
2022-08-17T03:59:48.223Z,96.82
2022-08-17T04:02:30.491Z,98.16
2022-08-17T04:05:00.034Z,96.38
2022-08-17T04:07:31.679Z,97.34
2022-08-17T04:09:59.679Z,95.93
2022-08-17T04:12:31.772Z,94.35
2022-08-17T04:15:00.039Z,94.01
2022-08-17T04:17:30.211Z,93.36
2022-08-17T04:19:58.160Z,91.96
2022-08-17T04:22:30.847Z,93.90
2022-08-17T04:25:16.928Z,92.88
2022-08-17T04:27:44.701Z,90.96
2022-08-17T04:30:14.464Z,90.93
2022-08-17T04:33:03.814Z,91.13
2022-08-17T04:35:47.949Z,90.08
2022-08-17T04:38:22.260Z,89.44
2022-08-17T04:41:09.642Z,90.95
2022-08-17T04:43:40.401Z,88.69
2022-08-17T04:46:26.106Z,89.96
2022-08-17T04:48:57.935Z,90.26
2022-08-17T04:51:39.804Z,90.16
2022-08-17T04:54:21.612Z,86.58
2022-08-17T04:56:50.328Z,85.47
2022-08-17T04:59:22.593Z,85.22
2022-08-17T05:01:52.988Z,84.70
2022-08-17T05:04:35.020Z,82.72
2022-08-17T05:07:04.805Z,86.07
2022-08-17T05:09:32.632Z,87.09
2022-08-17T05:12:03.223Z,84.94
2022-08-17T05:14:33.639Z,81.50
2022-08-17T05:17:09.400Z,81.17
2022-08-17T05:19:40.058Z,74.14
2022-08-17T05:22:09.312Z,66.02
2022-08-17T05:24:39.143Z,63.71
2022-08-17T05:27:14.302Z,67.83
2022-08-17T05:29:47.708Z,71.82
2022-08-17T05:32:38.549Z,70.07
2022-08-17T05:35:07.472Z,72.50
2022-08-17T05:37:36.030Z,70.59
2022-08-17T05:40:05.730Z,73.12
2022-08-17T05:42:34.349Z,73.77
2022-08-17T05:45:02.797Z,64.53
2022-08-17T05:47:31.863Z,65.06
2022-08-17T05:50:02.081Z,68.69
2022-08-17T05:52:48.322Z,70.50
2022-08-17T05:55:40.759Z,69.59
2022-08-17T05:58:47.618Z,63.07
2022-08-17T06:02:01.680Z,62.39
2022-08-17T06:05:27.248Z,68.04
2022-08-17T06:08:56.599Z,68.88
2022-08-17T06:11:54.251Z,68.57
2022-08-17T06:14:51.996Z,66.34
2022-08-17T06:17:25.186Z,68.09
2022-08-17T06:20:00.643Z,69.89
2022-08-17T06:22:36.807Z,67.82
2022-08-17T06:25:38.089Z,63.78
2022-08-17T06:28:14.835Z,64.56
2022-08-17T06:31:15.500Z,66.95
2022-08-17T06:33:46.508Z,66.50
2022-08-17T06:36:49.648Z,64.27
2022-08-17T06:39:48.818Z,62.79
2022-08-17T06:43:27.868Z,61.28
2022-08-17T06:46:28.378Z,57.59
2022-08-17T06:49:22.100Z,40.97
2022-08-17T06:52:12.436Z,41.45
2022-08-17T06:55:22.000Z,38.52
2022-08-17T06:57:59.070Z,37.01
2022-08-17T07:00:39.428Z,32.58
2022-08-17T07:03:38.002Z,34.58
2022-08-17T07:06:18.820Z,31.37
2022-08-17T07:09:34.763Z,32.25
2022-08-17T07:12:26.202Z,32.64
2022-08-17T07:15:25.540Z,32.38
2022-08-17T07:17:54.441Z,31.47
2022-08-17T07:20:23.259Z,30.69
2022-08-17T07:23:40.249Z,29.81
2022-08-17T07:26:10.331Z,34.25
2022-08-17T07:28:40.397Z,39.93
2022-08-17T07:31:13.418Z,33.00
2022-08-17T07:34:14.791Z,38.88
2022-08-17T07:36:43.538Z,48.23
2022-08-17T07:39:12.087Z,49.56
2022-08-17T07:41:57.536Z,49.53
2022-08-17T07:44:28.103Z,48.28
2022-08-17T07:47:15.890Z,46.46
2022-08-17T07:49:49.566Z,48.01
2022-08-17T07:52:50.619Z,46.84
2022-08-17T07:55:35.538Z,46.76
2022-08-17T07:58:04.133Z,45.53
2022-08-17T08:00:33.906Z,45.11
2022-08-17T08:03:28.396Z,45.98
2022-08-17T08:06:02.260Z,43.85
2022-08-17T08:08:43.639Z,43.92
2022-08-17T08:11:16.983Z,44.30
2022-08-17T08:13:46.116Z,44.30
2022-08-17T08:16:29.393Z,44.16
2022-08-17T08:19:02.452Z,42.68
2022-08-17T08:22:07.789Z,43.66
2022-08-17T08:25:17.930Z,44.13
2022-08-17T08:28:06.608Z,42.60
2022-08-17T08:30:47.910Z,43.05
2022-08-17T08:33:51.963Z,42.39
2022-08-17T08:37:16.584Z,43.84
2022-08-17T08:40:11.547Z,41.61
2022-08-17T08:43:26.956Z,39.99
2022-08-17T08:46:56.717Z,41.42
2022-08-17T08:50:30.184Z,41.62
2022-08-17T08:53:26.466Z,41.73
2022-08-17T08:56:39.240Z,41.68
2022-08-17T08:59:57.651Z,40.29
2022-08-17T09:03:03.567Z,40.17
2022-08-17T09:06:33.533Z,39.29
2022-08-17T09:09:35.221Z,40.31
2022-08-17T09:12:47.810Z,39.13
2022-08-17T09:15:35.316Z,39.49
2022-08-17T09:19:00.744Z,38.67
2022-08-17T09:21:48.241Z,38.91
2022-08-17T09:24:43.742Z,38.68
2022-08-17T09:27:19.040Z,38.30
2022-08-17T09:29:58.941Z,38.25
2022-08-17T09:32:50.013Z,39.11
2022-08-17T09:35:44.659Z,38.23
2022-08-17T09:38:41.837Z,37.76
2022-08-17T09:41:59.111Z,36.76
2022-08-17T09:44:55.676Z,36.26
2022-08-17T09:47:45.607Z,37.46
2022-08-17T09:51:05.262Z,37.52
2022-08-17T09:53:20.069Z,37.02
2022-08-17T09:56:19.710Z,36.47
2022-08-17T09:59:21.823Z,35.88
2022-08-17T10:02:43.518Z,35.86
2022-08-17T10:05:37.651Z,35.85
2022-08-17T10:08:52.696Z,36.79
2022-08-17T10:11:55.438Z,36.33
2022-08-17T10:14:53.333Z,35.45
2022-08-17T10:18:07.996Z,35.37
2022-08-17T10:21:27.893Z,35.77
2022-08-17T10:25:22.316Z,37.03
2022-08-17T10:27:59.757Z,35.07
2022-08-17T10:30:36.860Z,35.65
2022-08-17T10:33:16.782Z,34.95
2022-08-17T10:36:27.443Z,35.15
2022-08-17T10:39:52.202Z,34.41
2022-08-17T10:43:15.685Z,35.06
2022-08-17T10:46:30.239Z,35.98
2022-08-17T10:49:36.643Z,36.11
2022-08-17T10:52:28.001Z,34.47
2022-08-17T10:54:58.801Z,33.70
2022-08-17T10:57:31.836Z,31.86
2022-08-17T11:00:09.708Z,31.36
2022-08-17T11:02:52.931Z,30.43
2022-08-17T11:06:15.656Z,31.08
2022-08-17T11:09:06.199Z,31.22
2022-08-17T11:12:20.189Z,31.75
2022-08-17T11:15:49.703Z,31.60
2022-08-17T11:19:10.201Z,32.19
2022-08-17T11:22:17.871Z,31.76
2022-08-17T11:24:51.496Z,30.63
2022-08-17T11:27:33.547Z,30.76
2022-08-17T11:30:41.744Z,30.25
2022-08-17T11:33:38.210Z,30.52
2022-08-17T11:36:56.261Z,30.51
2022-08-17T11:39:42.642Z,30.18
2022-08-17T11:42:49.189Z,30.89
2022-08-17T11:45:54.607Z,30.79
2022-08-17T11:49:27.730Z,30.64
2022-08-17T11:52:12.178Z,30.23
2022-08-17T11:54:49.109Z,28.77
2022-08-17T11:57:26.500Z,28.94
2022-08-17T12:00:11.910Z,29.17
2022-08-17T12:02:48.839Z,28.95
2022-08-17T12:05:17.476Z,28.87
2022-08-17T12:08:10.908Z,28.91
2022-08-17T12:11:16.869Z,28.10
2022-08-17T12:14:07.409Z,27.97
2022-08-17T12:16:36.313Z,27.62
2022-08-17T12:19:06.158Z,26.74
2022-08-17T12:22:33.101Z,27.41
2022-08-17T12:25:22.977Z,25.54
2022-08-17T12:28:06.168Z,27.00
2022-08-17T12:30:36.885Z,29.12
2022-08-17T12:33:13.800Z,28.29
2022-08-17T12:36:06.246Z,28.60
2022-08-17T12:38:38.389Z,29.04
2022-08-17T12:41:28.443Z,28.12
2022-08-17T12:44:21.540Z,27.66
2022-08-17T12:47:22.330Z,27.91
2022-08-17T12:50:29.805Z,28.31
2022-08-17T12:53:02.208Z,28.76
2022-08-17T12:55:37.617Z,28.34
2022-08-17T12:58:14.437Z,28.42
2022-08-17T13:01:05.188Z,28.70
2022-08-17T13:03:46.577Z,29.26
2022-08-17T13:06:37.088Z,30.23
2022-08-17T13:09:40.069Z,30.15
2022-08-17T13:12:09.445Z,30.57
2022-08-17T13:14:38.064Z,30.10
2022-08-17T13:17:13.198Z,29.53
2022-08-17T13:19:50.517Z,29.33
2022-08-17T13:22:25.716Z,28.63
2022-08-17T13:25:03.746Z,28.03
2022-08-17T13:27:34.147Z,27.64
2022-08-17T13:30:12.274Z,27.45
2022-08-17T13:32:47.400Z,26.64
2022-08-17T13:35:50.544Z,27.59
2022-08-17T13:38:49.628Z,26.64
2022-08-17T13:41:37.628Z,26.68
2022-08-17T13:44:44.800Z,27.15
2022-08-17T13:47:19.985Z,26.24
2022-08-17T13:49:49.643Z,26.34
2022-08-17T13:52:38.834Z,25.18
2022-08-17T13:55:20.722Z,25.74
2022-08-17T13:58:06.580Z,25.86
2022-08-17T14:00:37.499Z,25.82
2022-08-17T14:03:06.657Z,25.87
2022-08-17T14:05:37.437Z,27.03
2022-08-17T14:08:07.313Z,26.28
2022-08-17T14:10:36.779Z,25.89
2022-08-17T14:13:07.528Z,26.09
2022-08-17T14:15:54.738Z,25.67
2022-08-17T14:18:50.582Z,26.20
2022-08-17T14:21:13.943Z,26.24
2022-08-17T14:23:43.678Z,25.72
2022-08-17T14:26:23.288Z,26.24
2022-08-17T14:28:56.370Z,26.35
2022-08-17T14:31:27.002Z,25.91
2022-08-17T14:33:55.584Z,26.56
2022-08-17T14:36:24.005Z,26.15
2022-08-17T14:38:52.569Z,25.95
2022-08-17T14:41:23.603Z,26.18
2022-08-17T14:43:55.659Z,26.53
2022-08-17T14:46:24.919Z,25.76
2022-08-17T14:48:57.387Z,25.48
2022-08-17T14:51:30.245Z,25.51
2022-08-17T14:53:58.725Z,25.36
2022-08-17T14:56:27.724Z,25.35
2022-08-17T14:59:00.357Z,24.95
2022-08-17T15:01:29.010Z,26.21
2022-08-17T15:04:22.397Z,26.26
2022-08-17T15:06:50.923Z,26.23
2022-08-17T15:09:19.393Z,26.27
2022-08-17T15:11:48.319Z,27.04
2022-08-17T15:14:17.104Z,26.91
2022-08-17T15:16:45.572Z,27.41
2022-08-17T15:19:14.578Z,26.37
2022-08-17T15:21:43.093Z,26.73
2022-08-17T15:24:11.545Z,26.44
2022-08-17T15:26:40.759Z,26.11
2022-08-17T15:29:11.967Z,26.53
2022-08-17T15:31:40.729Z,26.40
2022-08-17T15:34:09.146Z,27.00
2022-08-17T15:36:37.961Z,26.83
2022-08-17T15:39:09.890Z,27.25
2022-08-17T15:41:38.322Z,27.80
2022-08-17T15:44:06.723Z,27.59
2022-08-17T15:46:35.651Z,27.71
2022-08-17T15:49:05.096Z,27.74
2022-08-17T15:51:36.341Z,26.75
2022-08-17T15:54:18.788Z,27.06
2022-08-17T15:56:52.950Z,27.08
2022-08-17T15:59:21.334Z,26.86
2022-08-17T16:03:14.821Z,27.52
2022-08-17T16:04:39.649Z,27.05
2022-08-17T16:07:12.453Z,27.56
2022-08-17T16:09:42.010Z,27.18
2022-08-17T16:12:19.430Z,28.17
2022-08-17T16:14:50.903Z,28.11
2022-08-17T16:17:39.912Z,28.21
2022-08-17T16:20:20.666Z,27.69
2022-08-17T16:22:51.293Z,28.36
2022-08-17T16:25:52.676Z,28.25
2022-08-17T16:28:19.394Z,28.02
2022-08-17T16:30:47.967Z,28.49
2022-08-17T16:33:17.108Z,28.26
2022-08-17T16:35:45.495Z,28.82
2022-08-17T16:38:13.907Z,28.92
2022-08-17T16:40:42.747Z,28.52
2022-08-17T16:43:12.193Z,29.06
2022-08-17T16:45:41.183Z,29.22
2022-08-17T16:48:12.009Z,29.79
2022-08-17T16:50:42.777Z,29.70
2022-08-17T16:53:31.298Z,29.31
2022-08-17T16:55:59.685Z,30.49
2022-08-17T16:58:28.200Z,29.67
2022-08-17T17:00:59.726Z,30.67
2022-08-17T17:03:31.685Z,30.53
2022-08-17T17:06:28.443Z,30.25
2022-08-17T17:09:04.084Z,30.55
2022-08-17T17:11:51.097Z,30.92
2022-08-17T17:14:43.896Z,31.51
2022-08-17T17:17:36.239Z,31.31
2022-08-17T17:20:24.930Z,31.85
2022-08-17T17:23:25.562Z,31.95
2022-08-17T17:26:33.143Z,31.79
2022-08-17T17:29:47.339Z,32.53
2022-08-17T17:32:45.184Z,32.88
2022-08-17T17:35:49.885Z,32.90
2022-08-17T17:38:55.493Z,33.30
2022-08-17T17:41:34.582Z,34.53
2022-08-17T17:44:13.043Z,35.11
2022-08-17T17:46:59.371Z,35.70
2022-08-17T17:49:44.285Z,36.18
2022-08-17T17:52:59.689Z,36.55
2022-08-17T17:55:49.661Z,36.63
2022-08-17T17:58:36.284Z,38.65
2022-08-17T18:01:39.511Z,39.11
2022-08-17T18:04:25.917Z,39.07
2022-08-17T18:07:28.294Z,40.11
2022-08-17T18:10:29.789Z,40.44
2022-08-17T18:13:28.165Z,40.96
2022-08-17T18:16:00.834Z,40.29
2022-08-17T18:18:40.079Z,41.29
2022-08-17T18:21:36.132Z,42.82
2022-08-17T18:24:08.826Z,43.00
2022-08-17T18:26:45.614Z,43.71
2022-08-17T18:29:37.680Z,44.38
2022-08-17T18:32:32.017Z,45.09
2022-08-17T18:35:29.122Z,45.41
2022-08-17T18:38:27.800Z,46.67
2022-08-17T18:41:23.859Z,48.80
2022-08-17T18:44:06.766Z,47.85
2022-08-17T18:46:37.746Z,48.81
2022-08-17T18:49:30.053Z,51.02
2022-08-17T18:52:30.158Z,48.49
2022-08-17T18:55:23.694Z,50.54
2022-08-17T18:57:58.011Z,51.02
2022-08-17T19:00:47.592Z,51.14
2022-08-17T19:03:24.600Z,51.11
2022-08-17T19:06:25.968Z,51.59
2022-08-17T19:08:54.598Z,51.11
2022-08-17T19:11:32.151Z,51.95
2022-08-17T19:14:10.451Z,52.67
2022-08-17T19:17:10.568Z,52.13
2022-08-17T19:20:03.818Z,53.72
2022-08-17T19:23:16.944Z,53.42
2022-08-17T19:25:58.979Z,52.83
2022-08-17T19:29:16.627Z,53.87
2022-08-17T19:31:59.213Z,53.27
2022-08-17T19:34:34.663Z,54.26
2022-08-17T19:37:35.135Z,53.62
2022-08-17T19:40:54.841Z,54.33
2022-08-17T19:43:48.200Z,54.03
2022-08-17T19:47:57.768Z,54.74
2022-08-17T19:50:59.345Z,54.72
2022-08-17T19:54:18.395Z,54.54
2022-08-17T19:57:21.432Z,55.15
2022-08-17T20:00:13.356Z,55.31
2022-08-17T20:03:09.106Z,55.77
2022-08-17T20:06:12.048Z,54.70
2022-08-17T20:09:44.516Z,55.46
2022-08-17T20:12:29.900Z,56.89
2022-08-17T20:15:19.307Z,55.14
2022-08-17T20:17:48.979Z,52.39
2022-08-17T20:20:38.890Z,50.37
2022-08-17T20:23:23.526Z,50.47
2022-08-17T20:26:49.102Z,50.72
2022-08-17T20:29:39.603Z,50.33
2022-08-17T20:32:31.773Z,49.42
2022-08-17T20:35:20.868Z,49.90
2022-08-17T20:38:13.692Z,50.67
2022-08-17T20:41:04.780Z,50.55
2022-08-17T20:43:37.148Z,51.80
2022-08-17T20:46:26.994Z,52.04
2022-08-17T20:49:44.679Z,52.43
2022-08-17T20:52:55.781Z,54.85
2022-08-17T20:55:55.773Z,57.93
2022-08-17T20:58:30.674Z,57.21
2022-08-17T21:01:14.749Z,58.04
2022-08-17T21:03:51.133Z,57.52
2022-08-17T21:06:24.430Z,57.37
2022-08-17T21:09:16.283Z,57.39
2022-08-17T21:12:05.568Z,58.57
2022-08-17T21:14:56.547Z,58.10
2022-08-17T21:17:42.310Z,58.83
2022-08-17T21:21:04.799Z,58.76
2022-08-17T21:24:03.187Z,59.43
2022-08-17T21:27:22.143Z,59.80
2022-08-17T21:30:34.821Z,60.57
2022-08-17T21:33:26.374Z,62.56
2022-08-17T21:36:23.904Z,59.18
2022-08-17T21:39:09.267Z,56.35
2022-08-17T21:41:56.379Z,58.02
2022-08-17T21:44:37.915Z,58.40
2022-08-17T21:47:30.801Z,59.01
2022-08-17T21:50:24.263Z,59.32
2022-08-17T21:53:01.084Z,59.85
2022-08-17T21:55:33.395Z,59.86
2022-08-17T21:58:19.945Z,60.68
2022-08-17T22:01:34.654Z,59.65
2022-08-17T22:04:12.137Z,59.73
2022-08-17T22:06:57.197Z,61.57
2022-08-17T22:09:43.315Z,61.96
2022-08-17T22:12:18.029Z,61.48
2022-08-17T22:15:07.507Z,60.80
2022-08-17T22:17:46.699Z,61.78
2022-08-17T22:20:21.674Z,63.16
2022-08-17T22:23:08.514Z,62.56
2022-08-17T22:26:01.014Z,62.11
2022-08-17T22:28:56.563Z,62.05
2022-08-17T22:31:32.840Z,59.06
2022-08-17T22:34:04.224Z,61.90
2022-08-17T22:36:41.961Z,63.23
2022-08-17T22:39:10.452Z,62.24
2022-08-17T22:41:56.040Z,63.22
2022-08-17T22:44:52.851Z,61.01
2022-08-17T22:47:41.083Z,61.89
2022-08-17T22:50:27.023Z,63.09
2022-08-17T22:53:35.888Z,64.58
2022-08-17T22:56:23.842Z,63.77
2022-08-17T22:59:18.204Z,65.00
2022-08-17T23:02:21.876Z,66.03
2022-08-17T23:05:16.894Z,66.62
2022-08-17T23:07:47.600Z,66.98
2022-08-17T23:10:16.284Z,64.30
2022-08-17T23:12:46.230Z,63.88
2022-08-17T23:15:20.045Z,64.57
2022-08-17T23:17:48.767Z,65.92
2022-08-17T23:20:17.848Z,65.82
2022-08-17T23:22:52.439Z,65.51
2022-08-17T23:25:31.849Z,67.04
2022-08-17T23:28:03.983Z,68.57
2022-08-17T23:30:40.008Z,68.30
2022-08-17T23:33:25.774Z,68.28
2022-08-17T23:35:54.381Z,65.78
2022-08-17T23:38:25.139Z,66.92
2022-08-17T23:40:54.965Z,68.13
2022-08-17T23:43:28.201Z,68.92
2022-08-17T23:46:00.579Z,69.85
2022-08-17T23:48:36.583Z,70.42
2022-08-17T23:51:19.121Z,70.59
2022-08-17T23:53:53.312Z,70.81
2022-08-17T23:56:33.681Z,70.76
2022-08-17T23:59:02.870Z,71.88
